Terminal Aerodrome Forecast
Issued by NWS Sioux Falls, SD

Home | Current Version | Previous Version | Text Only | Print | Product List | Glossary On
Versions: 1 2 3 4 5 6 7 8 9 10 11 12 13 14 15 16 17 18
000
FTUS43 KFSD 171729
TAFHON
TAF
KHON 171729Z 1718/1818 28004KT 6SM BR SCT010 OVC035
     FM180000 18004KT 6SM BR FEW030 SCT100
     FM180500 18008KT P6SM FEW030 SCT070
     FM181300 21007KT P6SM SKC=

USA.gov is the U.S. government's official web portal to all federal, state and local government web resources and services.